Time;durP1;ratioP1;P1;durP2;ratioP2;P2;SDS_P1;SDS_P2;PMS_P1;PMS_P2;Temp;Humidity;BMP_temperature;BMP_pressure;BME280_temperature;BME280_humidity;BME280_pressure;Samples;Min_cycle;Max_cycle;Signal;HPM_P1;HPM_P2
2022/08/22 00:01:32;;;;;;;12.00;11.38;;;;;;;24.28;100.00;-18396.97;5115344;28;20693;-65
2022/08/22 00:04:09;;;;;;;11.75;11.05;;;;;;;24.30;100.00;-18397.56;5098000;28;20187;-65
2022/08/22 00:06:47;;;;;;;12.70;12.02;;;;;;;24.05;100.00;-18391.75;5115139;28;20190;-65
2022/08/22 00:09:28;;;;;;;12.00;11.27;;;;;;;24.08;100.00;-18392.34;5097381;28;20595;-65
2022/08/22 00:12:04;;;;;;;12.52;11.35;;;;;;;24.18;100.00;-18394.63;5114693;28;20210;-65
2022/08/22 00:14:39;;;;;;;12.68;11.93;;;;;;;24.14;100.00;-18393.91;5114926;28;20230;-65
2022/08/22 00:17:21;;;;;;;12.05;11.00;;;;;;;24.32;100.00;-18397.94;5115047;28;20265;-66
2022/08/22 00:19:55;;;;;;;12.57;11.73;;;;;;;24.31;100.00;-18397.69;5114195;28;20195;-65
2022/08/22 00:22:53;;;;;;;12.85;11.80;;;;;;;24.26;100.00;-18396.50;5089571;27;20541;-65
2022/08/22 00:25:40;;;;;;;13.13;12.10;;;;;;;24.27;100.00;-18396.75;5089562;28;20184;-66
2022/08/22 00:28:13;;;;;;;11.82;10.98;;;;;;;24.40;100.00;-18399.81;5089440;28;20287;-65
2022/08/22 00:30:50;;;;;;;11.75;11.10;;;;;;;24.45;100.00;-18401.13;5089570;28;20180;-64
2022/08/22 00:33:24;;;;;;;12.35;11.75;;;;;;;24.30;100.00;-18397.56;5089230;28;20188;-64
2022/08/22 00:36:01;;;;;;;13.25;12.43;;;;;;;24.28;100.00;-18396.97;5089607;28;20211;-65
2022/08/22 00:38:34;;;;;;;12.80;12.15;;;;;;;24.12;100.00;-18393.31;5089458;28;20666;-65
2022/08/22 00:41:07;;;;;;;12.77;11.88;;;;;;;24.16;100.00;-18394.25;5089125;28;20208;-66
2022/08/22 00:44:10;;;;;;;13.43;12.82;;;;;;;24.18;100.00;-18394.72;5089199;28;20190;-65
2022/08/22 00:47:07;;;;;;;12.95;11.93;;;;;;;24.17;100.00;-18394.50;5082293;28;20218;-64
2022/08/22 00:49:50;;;;;;;13.77;13.18;;;;;;;24.11;100.00;-18393.06;5087460;28;20689;-64
2022/08/22 00:52:32;;;;;;;13.32;12.60;;;;;;;24.21;100.00;-18395.31;5089302;28;20549;-65
2022/08/22 00:55:17;;;;;;;12.57;11.95;;;;;;;24.22;100.00;-18395.56;5089254;28;20555;-65
2022/08/22 00:58:04;;;;;;;12.93;12.10;;;;;;;24.16;100.00;-18394.13;5088802;28;20192;-65
2022/08/22 01:00:35;;;;;;;11.77;11.02;;;;;;;24.23;100.00;-18395.81;5088917;28;20199;-64
2022/08/22 01:03:48;;;;;;;13.18;11.77;;;;;;;24.29;100.00;-18397.22;5089243;28;20184;-65
2022/08/22 01:06:24;;;;;;;12.60;11.75;;;;;;;24.16;100.00;-18394.13;5046780;28;20193;-64
2022/08/22 01:09:03;;;;;;;12.38;11.50;;;;;;;24.06;100.00;-18392.00;5081390;28;20286;-64
2022/08/22 01:12:05;;;;;;;13.95;13.32;;;;;;;24.19;100.00;-18394.97;5089352;28;20551;-65
2022/08/22 01:14:45;;;;;;;14.63;13.98;;;;;;;24.05;100.00;-18391.66;5088756;28;20624;-65
2022/08/22 01:17:37;;;;;;;14.52;13.85;;;;;;;24.01;100.00;-18390.69;5088619;28;20180;-65
2022/08/22 01:20:33;;;;;;;14.98;14.25;;;;;;;23.88;100.00;-18387.72;5088906;28;20706;-65
2022/08/22 01:23:35;;;;;;;16.30;15.20;;;;;;;23.76;100.00;-18384.88;5088531;28;20566;-66
2022/08/22 01:26:53;;;;;;;16.23;15.15;;;;;;;23.78;100.00;-18385.25;5088243;28;20188;-65
2022/08/22 01:29:54;;;;;;;16.77;15.57;;;;;;;23.75;100.00;-18384.53;5088461;28;20613;-65
2022/08/22 01:33:07;;;;;;;18.38;16.75;;;;;;;23.73;100.00;-18384.19;5083500;28;20192;-65
2022/08/22 01:36:18;;;;;;;16.15;15.15;;;;;;;23.68;100.00;-18383.09;5074574;28;20192;-65
2022/08/22 01:39:11;;;;;;;14.80;13.95;;;;;;;23.58;100.00;-18380.63;5074653;28;20192;-64
2022/08/22 01:42:02;;;;;;;16.13;14.77;;;;;;;23.54;100.00;-18379.78;5074720;28;20208;-64
2022/08/22 01:44:46;;;;;;;15.60;14.25;;;;;;;23.40;100.00;-18376.34;5074478;28;20188;-65
2022/08/22 01:47:19;;;;;;;15.90;14.68;;;;;;;23.48;100.00;-18378.38;5074388;28;20271;-65
2022/08/22 01:49:51;;;;;;;15.68;14.82;;;;;;;23.54;100.00;-18379.66;5074374;28;20191;-64
2022/08/22 01:52:34;;;;;;;15.60;14.25;;;;;;;23.54;100.00;-18379.66;5074241;28;20181;-65
2022/08/22 01:55:09;;;;;;;14.98;13.90;;;;;;;23.54;100.00;-18379.78;5074464;28;20248;-64
2022/08/22 01:57:51;;;;;;;14.27;13.48;;;;;;;23.55;100.00;-18379.91;5074248;28;20272;-65
2022/08/22 02:00:20;;;;;;;14.10;12.95;;;;;;;23.62;100.00;-18381.56;5074385;28;20208;-65
2022/08/22 02:03:02;;;;;;;13.63;12.88;;;;;;;23.66;100.00;-18382.53;5074020;28;20236;-64
2022/08/22 02:05:36;;;;;;;14.88;13.88;;;;;;;23.40;100.00;-18376.34;5073946;28;20184;-64
2022/08/22 02:08:06;;;;;;;14.85;13.98;;;;;;;23.65;100.00;-18382.28;5074242;28;20177;-65
2022/08/22 02:10:53;;;;;;;14.70;14.07;;;;;;;23.66;100.00;-18382.53;5074235;28;20192;-64
2022/08/22 02:13:33;;;;;;;15.35;14.32;;;;;;;23.65;100.00;-18382.41;5074324;28;20185;-64
2022/08/22 02:16:12;;;;;;;14.45;13.75;;;;;;;23.62;100.00;-18381.56;5074269;28;20195;-64
2022/08/22 02:18:50;;;;;;;15.43;14.43;;;;;;;23.61;100.00;-18381.34;5073927;28;20188;-64
2022/08/22 02:21:22;;;;;;;15.68;14.68;;;;;;;23.54;100.00;-18379.66;5073709;28;20278;-65
2022/08/22 02:23:55;;;;;;;16.60;15.70;;;;;;;23.45;100.00;-18377.66;5073765;28;20189;-65
2022/08/22 02:26:29;;;;;;;16.52;15.23;;;;;;;23.45;100.00;-18377.53;5074275;28;20181;-64
2022/08/22 02:29:00;;;;;;;17.30;16.13;;;;;;;23.28;100.00;-18373.50;5073947;28;20238;-64
2022/08/22 02:31:45;;;;;;;17.20;16.15;;;;;;;23.36;100.00;-18375.50;5073472;28;20185;-65
2022/08/22 02:34:32;;;;;;;17.13;16.02;;;;;;;23.26;100.00;-18373.13;5073712;28;20185;-65
2022/08/22 02:37:08;;;;;;;18.15;16.67;;;;;;;23.33;100.00;-18374.69;5073662;28;20188;-64
2022/08/22 02:39:42;;;;;;;16.52;15.27;;;;;;;23.29;100.00;-18373.84;5073882;28;20546;-64
2022/08/22 02:42:20;;;;;;;16.77;15.40;;;;;;;23.32;100.00;-18374.44;5073614;28;20603;-64
2022/08/22 02:44:57;;;;;;;16.38;15.38;;;;;;;23.17;100.00;-18371.13;5072942;28;20180;-65
2022/08/22 02:47:34;;;;;;;16.33;15.32;;;;;;;23.32;100.00;-18374.44;5073630;28;20238;-64
2022/08/22 02:50:10;;;;;;;16.85;15.88;;;;;;;23.14;100.00;-18370.28;5073609;28;20188;-64
2022/08/22 02:52:52;;;;;;;16.77;15.75;;;;;;;23.20;100.00;-18371.72;5073940;28;20184;-65
2022/08/22 02:55:30;;;;;;;16.17;15.20;;;;;;;23.16;100.00;-18370.88;5073635;28;20707;-64
2022/08/22 02:58:06;;;;;;;17.23;16.02;;;;;;;23.01;100.00;-18367.31;5072918;28;20189;-66
2022/08/22 03:00:45;;;;;;;17.58;16.42;;;;;;;23.01;100.00;-18367.22;5072820;28;20202;-64
2022/08/22 03:03:21;;;;;;;16.55;15.55;;;;;;;23.05;100.00;-18368.28;5073120;28;20208;-64
2022/08/22 03:05:55;;;;;;;15.57;14.93;;;;;;;23.04;100.00;-18368.03;5073067;28;20216;-65
2022/08/22 03:08:26;;;;;;;17.75;16.35;;;;;;;23.01;100.00;-18367.22;5073001;28;20647;-65
2022/08/22 03:11:04;;;;;;;16.63;15.73;;;;;;;23.05;100.00;-18368.28;5072909;28;20578;-64
2022/08/22 03:13:40;;;;;;;16.70;15.70;;;;;;;23.00;100.00;-18367.09;5072673;28;20189;-64
2022/08/22 03:16:10;;;;;;;16.92;15.82;;;;;;;;;;5072576;28;20275;-64
2022/08/22 03:18:48;;;;;;;16.58;15.57;;;;;;;22.86;100.00;-18363.75;5072871;28;20189;-63
2022/08/22 03:21:24;;;;;;;17.45;16.17;;;;;;;22.88;100.00;-18364.25;5072492;28;20236;-66
2022/08/22 03:23:56;;;;;;;18.27;16.92;;;;;;;22.91;100.00;-18364.94;5072477;28;20184;-63
2022/08/22 03:26:27;;;;;;;18.42;16.85;;;;;;;22.90;100.00;-18364.72;5072326;28;20200;-65
2022/08/22 03:29:01;;;;;;;18.92;17.40;;;;;;;22.90;100.00;-18364.72;5072972;28;20198;-65
2022/08/22 03:31:31;;;;;;;19.83;18.00;;;;;;;22.90;100.00;-18364.72;5073320;28;20207;-65
2022/08/22 03:34:21;;;;;;;20.30;18.67;;;;;;;22.88;100.00;-18364.25;5072753;28;20260;-65
2022/08/22 03:37:02;;;;;;;19.23;16.90;;;;;;;22.90;100.00;-18364.72;5072605;28;20185;-65
2022/08/22 03:39:48;;;;;;;19.65;18.25;;;;;;;22.83;100.00;-18363.06;5072775;28;20647;-64
2022/08/22 03:42:49;;;;;;;17.65;16.45;;;;;;;22.80;100.00;-18362.34;5072331;28;20240;-65
2022/08/22 03:45:53;;;;;;;18.05;16.50;;;;;;;22.89;100.00;-18364.34;5072206;28;20185;-65
2022/08/22 03:48:38;;;;;;;19.33;17.50;;;;;;;22.90;100.00;-18364.72;5072569;28;20236;-65
2022/08/22 03:51:19;;;;;;;18.67;16.98;;;;;;;22.97;100.00;-18366.38;5072483;28;20184;-64
2022/08/22 03:54:13;;;;;;;19.60;17.33;;;;;;;23.09;100.00;-18369.09;5072405;28;20181;-64
2022/08/22 03:57:18;;;;;;;17.50;15.77;;;;;;;23.13;100.00;-18370.16;5072308;28;20204;-64
2022/08/22 04:00:11;;;;;;;16.42;15.25;;;;;;;23.39;100.00;-18376.22;5072454;28;20310;-65
2022/08/22 04:03:12;;;;;;;10.55;10.00;;;;;;;23.29;100.00;-18373.75;5072341;28;20620;-64
2022/08/22 04:06:01;;;;;;;10.65;10.23;;;;;;;23.42;100.00;-18376.81;5072169;28;20253;-65
2022/08/22 04:09:07;;;;;;;10.70;10.20;;;;;;;23.93;100.00;-18388.81;5069488;28;20196;-65
2022/08/22 04:12:30;;;;;;;15.25;14.02;;;;;;;24.23;100.00;-18395.91;5065723;28;20192;-65
2022/08/22 04:15:38;;;;;;;13.90;12.65;;;;;;;24.45;100.00;-18401.00;5006923;28;20221;-65
2022/08/22 04:18:29;;;;;;;12.80;11.52;;;;;;;24.69;100.00;-18406.69;5054973;28;20200;-66
2022/08/22 04:21:29;;;;;;;13.68;12.45;;;;;;;24.91;100.00;-18409.88;5071929;28;20228;-65
2022/08/22 04:24:30;;;;;;;11.65;11.13;;;;;;;25.08;100.00;-14834.94;5072178;28;20185;-64
2022/08/22 04:27:02;;;;;;;12.82;12.23;;;;;;;25.25;100.00;-10928.28;5068522;28;20287;-65
2022/08/22 04:29:35;;;;;;;11.63;10.93;;;;;;;25.49;100.00;-8973.66;5071774;28;20184;-65
2022/08/22 04:32:09;;;;;;;8.98;8.43;;;;;;;25.69;100.00;-3748.22;5071637;28;20268;-65
2022/08/22 04:34:42;;;;;;;10.10;9.63;;;;;;;26.05;100.00;1162.50;5072095;28;20228;-65
2022/08/22 04:37:14;;;;;;;10.50;10.00;;;;;;;26.28;100.00;8054.28;5071849;28;20627;-65
2022/08/22 04:39:48;;;;;;;9.98;9.38;;;;;;;26.52;100.00;11675.00;5071971;28;20207;-65
2022/08/22 04:42:20;;;;;;;10.27;9.73;;;;;;;26.72;100.00;15959.94;5070641;28;20208;-65
2022/08/22 04:44:56;;;;;;;8.43;7.93;;;;;;;27.02;100.00;28187.34;5071983;28;20197;-65
2022/08/22 04:47:30;;;;;;;8.32;8.00;;;;;;;27.18;100.00;41126.03;5071453;28;20189;-65
2022/08/22 04:50:05;;;;;;;8.20;7.70;;;;;;;27.32;100.00;43130.34;5071545;28;20184;-66
2022/08/22 04:52:47;;;;;;;6.72;6.43;;;;;;;27.22;100.00;38804.22;5071529;28;20191;-66
2022/08/22 04:55:24;;;;;;;6.60;6.40;;;;;;;27.17;100.00;36146.53;5071624;28;20321;-66
2022/08/22 04:58:01;;;;;;;6.82;6.47;;;;;;;27.33;100.00;34497.97;5071770;28;20204;-66
2022/08/22 05:00:40;;;;;;;6.55;6.35;;;;;;;27.55;100.00;41152.34;5072091;28;20547;-65
2022/08/22 05:03:12;;;;;;;7.85;7.38;;;;;;;27.82;100.00;53831.88;5071920;28;20679;-66
2022/08/22 05:05:43;;;;;;;6.88;6.57;;;;;;;28.16;100.00;72952.47;5072111;28;20556;-66
2022/08/22 05:08:16;;;;;;;7.40;7.10;;;;;;;28.28;100.00;87779.16;5073289;28;20203;-66
2022/08/22 05:10:47;;;;;;;7.22;7.03;;;;;;;27.66;100.00;51815.91;5075553;28;20203;-65
2022/08/22 05:13:22;;;;;;;7.10;6.70;;;;;;;28.15;100.00;63896.16;5074999;28;20223;-66
2022/08/22 05:15:52;;;;;;;7.20;6.75;;;;;;;28.56;100.00;108809.78;5075046;28;20188;-64
2022/08/22 05:18:23;;;;;;;7.78;6.80;;;;;;;29.07;100.00;151912.84;5075096;28;20189;-66
2022/08/22 05:20:53;;;;;;;7.57;7.18;;;;;;;28.97;100.00;153330.69;5075013;28;20699;-66
2022/08/22 05:23:28;;;;;;;12.45;7.70;;;;;;;29.21;100.00;153392.16;5075374;28;20212;-67
2022/08/22 05:26:00;;;;;;;8.38;7.55;;;;;;;29.01;100.00;153342.22;5076630;28;20635;-67
2022/08/22 05:28:33;;;;;;;7.78;7.35;;;;;;;28.93;100.00;153320.44;5075291;28;20185;-66
2022/08/22 05:31:03;;;;;;;8.30;7.70;;;;;;;28.65;100.00;133361.22;5074968;28;20203;-66
2022/08/22 05:33:32;;;;;;;8.10;7.63;;;;;;;28.38;100.00;101655.63;5074966;28;20250;-64
2022/08/22 05:36:04;;;;;;;10.18;9.65;;;;;;;28.47;100.00;100316.00;5074856;28;20315;-64
2022/08/22 05:38:37;;;;;;;9.60;9.13;;;;;;;28.56;100.00;105754.19;5074897;28;20188;-67
2022/08/22 05:41:12;;;;;;;32.03;29.10;;;;;;;28.50;100.00;91188.19;5075579;28;20181;-63
2022/08/22 05:43:42;;;;;;;8.95;8.65;;;;;;;28.72;100.00;110875.63;5075869;28;20207;-66
2022/08/22 05:46:19;;;;;;;9.48;9.18;;;;;;;28.63;100.00;103053.31;5076762;28;20681;-67
2022/08/22 05:48:55;;;;;;;11.23;9.40;;;;;;;28.41;100.00;80719.66;5077519;28;20619;-66
2022/08/22 05:51:43;;;;;;;10.00;9.35;;;;;;;28.43;100.00;83080.41;5077927;28;20185;-66
2022/08/22 05:54:15;;;;;;;9.15;8.73;;;;;;;28.51;100.00;98290.28;5077119;28;20189;-67
2022/08/22 05:56:46;;;;;;;10.65;9.82;;;;;;;28.69;100.00;100013.41;5077598;28;20200;-66
2022/08/22 05:59:22;;;;;;;10.13;9.68;;;;;;;28.59;100.00;86812.63;5077471;28;20185;-66
2022/08/22 06:02:03;;;;;;;9.50;8.88;;;;;;;28.77;100.00;102059.53;5075352;28;20180;-66
2022/08/22 06:04:35;;;;;;;10.15;9.20;;;;;;;29.19;100.00;130059.47;5075860;28;20196;-65
2022/08/22 06:07:08;;;;;;;9.82;9.48;;;;;;;30.13;100.00;153624.19;5074137;28;20189;-66
2022/08/22 06:09:58;;;;;;;8.77;8.27;;;;;;;30.17;100.00;153635.66;5074740;28;20184;-66
2022/08/22 06:12:33;;;;;;;9.30;9.00;;;;;;;30.09;100.00;153615.16;5074392;28;20661;-66
2022/08/22 06:15:07;;;;;;;10.20;9.40;;;;;;;29.62;100.00;153494.72;5074192;28;20196;-66
2022/08/22 06:17:37;;;;;;;10.20;9.57;;;;;;;29.33;100.00;153422.94;5074543;28;20192;-66
2022/08/22 06:20:08;;;;;;;10.13;9.32;;;;;;;29.15;100.00;153376.81;5074222;28;20197;-66
2022/08/22 06:22:41;;;;;;;11.00;10.23;;;;;;;29.02;100.00;153343.50;5074181;28;20228;-65
2022/08/22 06:25:14;;;;;;;9.15;8.65;;;;;;;28.94;100.00;153324.25;5074754;28;20180;-66
2022/08/22 06:27:42;;;;;;;10.18;9.82;;;;;;;29.01;100.00;153340.94;5073938;28;20235;-66
2022/08/22 06:30:14;;;;;;;10.13;9.50;;;;;;;29.00;100.00;153338.38;5074275;28;20187;-67
2022/08/22 06:32:44;;;;;;;11.05;10.18;;;;;;;29.06;100.00;153353.75;5073976;28;20185;-67
2022/08/22 06:35:22;;;;;;;10.90;10.27;;;;;;;28.84;100.00;151819.56;5074027;28;20238;-66
2022/08/22 06:37:53;;;;;;;10.13;9.73;;;;;;;28.95;100.00;148164.22;5074000;28;20184;-65
2022/08/22 06:40:20;;;;;;;9.57;8.77;;;;;;;29.01;100.00;153340.94;5073558;28;20180;-65
2022/08/22 06:42:50;;;;;;;10.00;9.35;;;;;;;29.21;100.00;153392.16;5073624;28;20211;-66
2022/08/22 06:45:22;;;;;;;10.88;10.02;;;;;;;29.21;100.00;153392.16;5072354;28;20192;-66
2022/08/22 06:47:54;;;;;;;9.43;9.02;;;;;;;29.31;100.00;153416.56;5073513;28;20189;-66
2022/08/22 06:50:29;;;;;;;9.35;8.95;;;;;;;29.62;100.00;153494.72;5073705;28;20192;-67
2022/08/22 06:53:04;;;;;;;10.27;8.70;;;;;;;30.07;100.00;153610.06;5072497;28;20188;-66
2022/08/22 06:55:33;;;;;;;9.77;8.82;;;;;;;30.22;100.00;153647.19;5073133;28;20188;-65
2022/08/22 06:58:04;;;;;;;9.93;9.00;;;;;;;30.13;100.00;153625.41;5073674;28;20193;-66
2022/08/22 07:00:33;;;;;;;8.75;8.18;;;;;;;30.31;100.00;153670.28;5073255;28;20185;-66
2022/08/22 07:03:07;;;;;;;9.18;8.60;;;;;;;30.12;100.00;153622.88;5074049;28;20204;-66
2022/08/22 07:05:37;;;;;;;8.90;8.48;;;;;;;30.08;100.00;153611.34;5073407;28;20191;-66
2022/08/22 07:08:09;;;;;;;8.90;8.40;;;;;;;29.44;100.00;153449.88;5075492;28;20181;-67
2022/08/22 07:10:39;;;;;;;38.78;33.20;;;;;;;29.45;100.00;153452.44;5074058;28;20562;-63
2022/08/22 07:13:12;;;;;;;10.23;9.63;;;;;;;29.69;100.00;153512.63;5072425;28;20269;-63
2022/08/22 07:15:42;;;;;;;7.63;7.32;;;;;;;29.73;100.00;153522.88;5072371;28;20189;-62
2022/08/22 07:18:20;;;;;;;7.88;7.38;;;;;;;29.79;100.00;153538.28;5072725;28;20191;-62
2022/08/22 07:20:51;;;;;;;8.60;8.10;;;;;;;30.27;100.00;153660.03;5072609;28;20228;-62
2022/08/22 07:23:32;;;;;;;8.75;8.02;;;;;;;31.00;100.00;153844.72;5072585;28;20239;-62
2022/08/22 07:26:17;;;;;;;7.50;7.05;;;;;;;31.58;100.00;153992.25;5072737;28;20207;-62
2022/08/22 07:28:49;;;;;;;8.25;7.68;;;;;;;31.11;100.00;153874.22;5072457;28;20188;-62
2022/08/22 07:31:32;;;;;;;8.30;6.97;;;;;;;31.30;100.00;153921.66;5072078;28;20185;-62
2022/08/22 07:34:14;;;;;;;6.45;6.15;;;;;;;31.42;100.00;153951.16;5072120;28;20177;-62
2022/08/22 07:36:47;;;;;;;6.68;6.38;;;;;;;31.32;100.00;153926.78;5072396;28;20272;-61
2022/08/22 07:39:25;;;;;;;6.80;6.43;;;;;;;31.18;100.00;153892.19;5071905;28;20594;-62
2022/08/22 07:42:05;;;;;;;6.25;5.85;;;;;;;31.44;100.00;153957.59;5072081;28;20189;-62
2022/08/22 07:44:42;;;;;;;8.13;7.50;;;;;;;31.91;100.00;154075.66;5071030;28;20315;-63
2022/08/22 07:47:13;;;;;;;6.80;6.28;;;;;;;32.28;100.00;154170.66;5072132;28;20254;-62
2022/08/22 07:49:47;;;;;;;6.38;5.95;;;;;;;32.53;100.00;154233.50;5072175;28;20611;-63
2022/08/22 07:52:15;;;;;;;6.45;6.25;;;;;;;32.00;100.00;154098.72;5071750;28;20191;-62
2022/08/22 07:54:49;;;;;;;6.75;6.47;;;;;;;31.18;100.00;153892.19;5070724;28;20177;-62
2022/08/22 07:57:22;;;;;;;6.50;6.07;;;;;;;31.16;100.00;153887.03;5071811;28;20196;-62
2022/08/22 07:59:52;;;;;;;5.90;5.60;;;;;;;31.38;100.00;153940.91;5072009;28;20265;-61
2022/08/22 08:02:21;;;;;;;6.75;6.45;;;;;;;31.56;100.00;153987.13;5071897;28;20235;-62
2022/08/22 08:04:51;;;;;;;6.55;6.15;;;;;;;31.83;100.00;154056.38;5071685;28;20787;-62
2022/08/22 08:07:21;;;;;;;6.78;6.50;;;;;;;31.78;100.00;154042.31;5072040;28;20267;-62
2022/08/22 08:09:55;;;;;;;6.22;5.93;;;;;;;31.55;100.00;153984.56;5072059;28;20653;-62
2022/08/22 08:12:33;;;;;;;6.18;5.97;;;;;;;31.50;100.00;153971.69;5071629;28;20276;-62
2022/08/22 08:15:02;;;;;;;6.32;5.97;;;;;;;30.92;100.00;153825.47;5071963;28;20203;-61
2022/08/22 08:17:33;;;;;;;6.18;5.97;;;;;;;31.26;100.00;153912.72;5072243;28;20189;-61
2022/08/22 08:20:05;;;;;;;7.30;7.00;;;;;;;30.85;100.00;153808.75;5072241;28;20279;-61
2022/08/22 08:22:33;;;;;;;8.90;8.40;;;;;;;30.45;100.00;153704.94;5070063;28;20316;-63
2022/08/22 08:25:03;;;;;;;8.68;8.05;;;;;;;30.52;100.00;153724.16;5071862;28;20284;-63
2022/08/22 08:30:22;;;;;;;7.30;6.90;;;;;;;30.75;100.00;153783.16;5071567;28;20311;-61
2022/08/22 08:32:54;;;;;;;11.20;10.25;;;;;;;31.02;100.00;153851.13;5071502;28;20189;-61
2022/08/22 08:35:24;;;;;;;8.88;8.00;;;;;;;31.21;100.00;153899.88;5071826;28;20184;-60
2022/08/22 08:37:56;;;;;;;7.55;7.35;;;;;;;30.76;100.00;153785.72;5071344;28;20230;-61
2022/08/22 08:41:01;;;;;;;10.25;8.70;;;;;;;30.73;100.00;153778.00;5071699;28;20188;-62
2022/08/22 08:43:40;;;;;;;9.05;8.50;;;;;;;30.88;100.00;153813.91;5073565;28;20208;-61
2022/08/22 08:46:44;;;;;;;8.68;8.18;;;;;;;30.75;100.00;153781.88;5075500;28;20180;-61
2022/08/22 08:49:28;;;;;;;9.45;9.02;;;;;;;30.77;100.00;153788.25;5073859;28;20206;-62
2022/08/22 08:52:39;;;;;;;9.82;8.95;;;;;;;30.89;100.00;153816.50;5074192;28;20184;-62
2022/08/22 08:55:22;;;;;;;10.02;9.00;;;;;;;30.93;100.00;153828.03;5075083;28;20242;-61
2022/08/22 08:58:08;;;;;;;8.80;8.23;;;;;;;31.18;100.00;153890.91;5075391;28;20567;-63
2022/08/22 09:00:50;;;;;;;9.38;8.68;;;;;;;31.36;100.00;153937.03;5075730;28;20220;-62
2022/08/22 09:03:36;;;;;;;8.73;8.27;;;;;;;31.45;100.00;153958.84;5074988;28;20204;-63
2022/08/22 09:06:25;;;;;;;8.88;8.40;;;;;;;31.33;100.00;153928.06;5075115;28;20196;-61
2022/08/22 09:09:11;;;;;;;8.50;8.00;;;;;;;31.70;100.00;154023.03;5074886;28;20184;-61
2022/08/22 09:12:06;;;;;;;9.45;8.75;;;;;;;31.37;100.00;153939.63;5074247;28;20200;-62
2022/08/22 09:14:58;;;;;;;8.05;7.60;;;;;;;31.42;100.00;153952.44;5074943;28;20216;-61
2022/08/22 09:17:56;;;;;;;7.82;7.53;;;;;;;31.57;100.00;153990.94;5071341;28;20553;-61
2022/08/22 09:20:45;;;;;;;8.45;7.85;;;;;;;31.04;100.00;153856.28;5074544;28;20208;-61
2022/08/22 09:24:00;;;;;;;6.95;6.45;;;;;;;31.89;100.00;154070.50;5074544;28;20221;-60
2022/08/22 09:26:37;;;;;;;7.43;6.97;;;;;;;32.03;100.00;154107.72;5074604;28;20185;-61
2022/08/22 09:29:21;;;;;;;6.95;6.75;;;;;;;31.67;100.00;154015.34;5075848;28;20589;-60
2022/08/22 09:32:03;;;;;;;6.82;6.43;;;;;;;31.91;100.00;154075.66;5074456;28;20242;-60
2022/08/22 09:34:36;;;;;;;6.40;5.97;;;;;;;31.88;100.00;154069.22;5073121;28;20192;-61
2022/08/22 09:37:16;;;;;;;5.35;5.15;;;;;;;31.82;100.00;154052.56;5074532;28;20185;-60
2022/08/22 09:39:53;;;;;;;5.10;4.90;;;;;;;31.54;100.00;153981.94;5074185;28;20276;-60
2022/08/22 09:42:29;;;;;;;6.70;6.40;;;;;;;31.61;100.00;153999.97;5073411;28;20197;-61
2022/08/22 09:45:21;;;;;;;5.72;5.35;;;;;;;31.86;100.00;154064.13;5058473;28;20266;-60
2022/08/22 09:47:59;;;;;;;5.50;5.30;;;;;;;31.38;100.00;153942.19;5054525;28;20185;-61
2022/08/22 09:50:39;;;;;;;5.82;5.43;;;;;;;31.59;100.00;153994.81;5061863;28;20295;-60
2022/08/22 09:53:14;;;;;;;5.93;5.72;;;;;;;30.96;100.00;153835.72;5073662;28;20262;-61
2022/08/22 09:55:51;;;;;;;5.43;5.10;;;;;;;30.90;100.00;153820.31;5074234;28;20618;-60
2022/08/22 09:58:24;;;;;;;5.50;5.30;;;;;;;31.12;100.00;153876.78;5074271;28;20192;-60
2022/08/22 10:00:57;;;;;;;6.03;5.68;;;;;;;31.24;100.00;153907.56;5074833;28;20230;-61
2022/08/22 10:03:52;;;;;;;5.40;5.07;;;;;;;31.47;100.00;153965.28;5060816;28;20264;-61
2022/08/22 10:06:25;;;;;;;5.57;5.38;;;;;;;31.55;100.00;153984.56;5065375;28;20285;-60
2022/08/22 10:09:01;;;;;;;5.22;4.90;;;;;;;31.77;100.00;154041.00;5053798;28;20181;-61
2022/08/22 10:11:32;;;;;;;5.30;4.90;;;;;;;31.80;100.00;154047.41;5053292;28;20205;-60
2022/08/22 10:14:08;;;;;;;4.93;4.53;;;;;;;31.32;100.00;153926.78;5056259;28;20648;-61
2022/08/22 10:16:50;;;;;;;5.75;5.10;;;;;;;31.28;100.00;153917.81;5060812;28;20205;-60
2022/08/22 10:19:26;;;;;;;4.53;4.30;;;;;;;31.69;100.00;154020.50;5063038;28;20219;-61
2022/08/22 10:22:20;;;;;;;7.50;5.50;;;;;;;31.97;100.00;154092.31;5073662;28;20242;-62
2022/08/22 10:24:58;;;;;;;6.53;6.13;;;;;;;31.83;100.00;154055.13;5074012;28;20683;-62
2022/08/22 10:27:43;;;;;;;4.93;4.63;;;;;;;32.04;100.00;154109.03;5073936;28;20193;-61
2022/08/22 10:30:13;;;;;;;5.50;5.05;;;;;;;32.05;100.00;154111.53;5073612;28;20192;-61
2022/08/22 10:32:46;;;;;;;4.93;4.63;;;;;;;31.61;100.00;154001.25;5074149;28;20189;-63
2022/08/22 10:35:21;;;;;;;5.32;5.05;;;;;;;31.68;100.00;154019.19;5073512;28;20540;-62
2022/08/22 10:37:55;;;;;;;4.93;4.72;;;;;;;31.48;100.00;153966.56;5072102;28;20192;-62
2022/08/22 10:40:29;;;;;;;5.28;4.60;;;;;;;31.51;100.00;153974.25;5073586;28;20192;-62
2022/08/22 10:43:02;;;;;;;5.28;4.97;;;;;;;31.19;100.00;153893.47;5073466;28;20231;-63
2022/08/22 10:45:33;;;;;;;5.72;5.20;;;;;;;31.11;100.00;153874.22;5073455;28;20258;-61
2022/08/22 10:48:34;;;;;;;5.88;5.55;;;;;;;31.33;100.00;153928.06;5073430;28;20644;-61
2022/08/22 10:51:16;;;;;;;5.35;5.15;;;;;;;31.11;100.00;153874.22;5073059;28;20245;-62
2022/08/22 10:54:07;;;;;;;5.50;5.30;;;;;;;31.15;100.00;153884.47;5073515;28;20206;-61
2022/08/22 10:56:41;;;;;;;6.22;5.20;;;;;;;31.38;100.00;153940.91;5073315;28;20195;-61
2022/08/22 10:59:24;;;;;;;7.20;6.13;;;;;;;31.37;100.00;153938.31;5073269;28;20252;-62
2022/08/22 11:02:04;;;;;;;5.95;5.65;;;;;;;31.31;100.00;153922.97;5073126;28;20654;-61
2022/08/22 11:04:53;;;;;;;6.55;6.22;;;;;;;31.12;100.00;153875.50;5072736;28;20670;-61
2022/08/22 11:07:43;;;;;;;6.28;5.85;;;;;;;31.10;100.00;153871.69;5072281;28;20202;-62
2022/08/22 11:10:23;;;;;;;6.47;6.00;;;;;;;30.74;100.00;153779.28;5072676;28;20216;-61
2022/08/22 11:13:05;;;;;;;7.28;6.50;;;;;;;30.80;100.00;153795.97;5072561;28;20238;-62
2022/08/22 11:16:01;;;;;;;7.20;6.60;;;;;;;30.71;100.00;153771.59;5072589;28;20271;-61
2022/08/22 11:18:51;;;;;;;7.85;7.25;;;;;;;29.66;100.00;153504.94;5071988;28;20300;-60
2022/08/22 11:21:31;;;;;;;7.22;6.82;;;;;;;30.36;100.00;153683.09;5072449;28;20224;-61
2022/08/22 11:24:13;;;;;;;11.48;7.93;;;;;;;29.90;100.00;153566.50;5072386;28;20307;-61
2022/08/22 11:26:47;;;;;;;8.75;7.93;;;;;;;29.89;100.00;153563.91;5071840;28;20207;-61
2022/08/22 11:29:43;;;;;;;8.75;8.00;;;;;;;29.78;100.00;153535.69;5072814;28;20197;-61
2022/08/22 11:32:16;;;;;;;8.90;8.23;;;;;;;29.47;100.00;153458.81;5069108;28;20215;-61
2022/08/22 11:34:51;;;;;;;8.50;7.60;;;;;;;29.59;100.00;153488.28;5072444;28;20192;-62
2022/08/22 11:37:45;;;;;;;7.80;7.50;;;;;;;29.35;100.00;153426.78;5072542;28;20194;-61
2022/08/22 11:40:24;;;;;;;9.73;8.88;;;;;;;29.20;100.00;153389.59;5072755;28;20196;-61
2022/08/22 11:43:06;;;;;;;13.63;12.18;;;;;;;29.31;100.00;153417.84;5072364;28;20188;-61
2022/08/22 11:45:47;;;;;;;8.02;7.57;;;;;;;29.35;100.00;153428.09;5072124;28;20205;-63
2022/08/22 11:48:21;;;;;;;8.77;7.97;;;;;;;29.04;100.00;153348.59;5072348;28;20683;-62
2022/08/22 11:50:53;;;;;;;8.93;8.07;;;;;;;28.71;100.00;153264.09;5072366;28;20242;-61
2022/08/22 11:53:27;;;;;;;8.80;8.10;;;;;;;29.07;100.00;153356.28;5070687;28;20239;-61
2022/08/22 11:56:11;;;;;;;8.75;8.07;;;;;;;29.00;100.00;153339.66;5061592;28;20299;-61
2022/08/22 11:58:56;;;;;;;9.40;8.50;;;;;;;29.17;100.00;153381.91;5051263;28;20669;-61
2022/08/22 12:01:28;;;;;;;9.50;8.57;;;;;;;29.29;100.00;153411.41;5056459;28;20201;-61
2022/08/22 12:04:09;;;;;;;8.98;7.32;;;;;;;29.21;100.00;153390.88;5051585;28;20197;-61
2022/08/22 12:06:54;;;;;;;8.63;7.78;;;;;;;28.98;100.00;153333.25;5051984;28;20567;-60
2022/08/22 12:09:56;;;;;;;8.02;7.32;;;;;;;28.91;100.00;153316.59;5052048;28;20552;-61
2022/08/22 12:12:51;;;;;;;7.97;7.45;;;;;;;28.68;100.00;153257.66;5048400;28;20690;-61